Time;durP1;ratioP1;P1;durP2;ratioP2;P2;SDS_P1;SDS_P2;PMS_P1;PMS_P2;Temp;Humidity;BMP_temperature;BMP_pressure;BME280_temperature;BME280_humidity;BME280_pressure;Samples;Min_cycle;Max_cycle;Signal;HPM_P1;HPM_P2
2022/04/06 00:01:57;;;;;;;;;;;;;;;;;;5073841;28;20376;-53
2022/04/06 00:04:23;;;;;;;;;;;;;;;;;;5073876;28;19954;-54
2022/04/06 00:06:52;;;;;;;;;;;;;;;;;;5073819;28;20015;-52
2022/04/06 00:09:18;;;;;;;;;;;;;;;;;;5073945;28;19912;-53
2022/04/06 00:11:44;;;;;;;;;;;;;;;;;;5073980;28;20363;-51
2022/04/06 00:14:10;;;;;;;;;;;;;;;;;;5073631;28;19915;-54
2022/04/06 00:16:36;;;;;;;;;;;;;;;;;;5073813;28;19916;-52
2022/04/06 00:19:02;;;;;;;;;;;;;;;;;;5073483;28;19908;-51
2022/04/06 00:21:28;;;;;;;;;;;;;;;;;;5072943;28;20069;-51
2022/04/06 00:23:54;;;;;;;;;;;;;;;;;;5073460;28;20414;-52
2022/04/06 00:26:20;;;;;;;;;;;;;;;;;;5073639;28;19961;-52
2022/04/06 00:28:46;;;;;;;;;;;;;;;;;;5073379;28;19953;-53
2022/04/06 00:31:12;;;;;;;;;;;;;;;;;;5073292;28;19909;-53
2022/04/06 00:33:38;;;;;;;;;;;;;;;;;;5073287;28;19908;-51
2022/04/06 00:36:03;;;;;;;;;;;;;;;;;;5073158;28;19991;-52
2022/04/06 00:38:29;;;;;;;;;;;;;;;;;;5073014;28;19928;-53
2022/04/06 00:40:55;;;;;;;;;;;;;;;;;;5073184;28;20355;-52
2022/04/06 00:43:21;;;;;;;;;;;;;;;;;;5073008;28;19920;-52
2022/04/06 00:45:47;;;;;;;;;;;;;;;;;;5073262;28;19909;-51
2022/04/06 00:48:13;;;;;;;;;;;;;;;;;;5072967;28;19912;-51
2022/04/06 00:50:39;;;;;;;;;;;;;;;;;;5073189;28;19919;-51
2022/04/06 00:53:05;;;;;;;;;;;;;;;;;;5073113;28;19909;-51
2022/04/06 00:55:31;;;;;;;;;;;;;;;;;;5072906;28;19916;-52
2022/04/06 00:57:57;;;;;;;;;;;;;;;;;;5073053;28;19920;-52
2022/04/06 01:00:23;;;;;;;;;;;;;;;;;;5073044;28;19995;-54
2022/04/06 01:02:49;;;;;;;;;;;;;;;;;;5073016;28;19912;-52
2022/04/06 01:05:15;;;;;;;;;;;;;;;;;;5072765;28;19915;-51
2022/04/06 01:07:41;;;;;;;;;;;;;;;;;;5072815;28;19965;-52
2022/04/06 01:10:07;;;;;;;;;;;;;;;;;;5072705;28;19935;-52
2022/04/06 01:12:32;;;;;;;;;;;;;;;;;;5072665;28;19947;-54
2022/04/06 01:14:58;;;;;;;;;;;;;;;;;;5072683;28;19919;-52
2022/04/06 01:17:24;;;;;;;;;;;;;;;;;;5072503;28;19948;-54
2022/04/06 01:19:53;;;;;;;;;;;;;;;;;;5072588;28;20282;-54
2022/04/06 01:22:19;;;;;;;;;;;;;;;;;;5072846;28;20102;-53
2022/04/06 01:24:45;;;;;;;;;;;;;;;;;;5072816;28;19939;-51
2022/04/06 01:27:11;;;;;;;;;;;;;;;;;;5072581;28;20287;-46
2022/04/06 01:29:37;;;;;;;;;;;;;;;;;;5072486;28;19915;-46
2022/04/06 01:32:03;;;;;;;;;;;;;;;;;;5072267;28;19908;-47
2022/04/06 01:34:29;;;;;;;;;;;;;;;;;;5072441;28;19919;-46
2022/04/06 01:36:55;;;;;;;;;;;;;;;;;;5072108;28;20064;-46
2022/04/06 01:39:21;;;;;;;;;;;;;;;;;;5072669;28;20259;-48
2022/04/06 01:41:46;;;;;;;;;;;;;;;;;;5072625;28;19908;-46
2022/04/06 01:44:12;;;;;;;;;;;;;;;;;;5072448;28;19908;-46
2022/04/06 01:46:38;;;;;;;;;;;;;;;;;;5072502;28;19997;-47
2022/04/06 01:54:33;;;;;;;;;;;;;;;;;;5072290;28;20352;-47
2022/04/06 01:56:59;;;;;;;;;;;;;;;;;;5072056;28;19928;-46
2022/04/06 01:59:25;;;;;;;;;;;;;;;;;;5072202;28;19909;-47
2022/04/06 02:01:51;;;;;;;;;;;;;;;;;;5072145;28;19945;-46
2022/04/06 02:04:17;;;;;;;;;;;;;;;;;;5072167;28;19908;-46
2022/04/06 02:06:43;;;;;;;;;;;;;;;;;;5072105;28;19915;-47
2022/04/06 02:09:08;;;;;;;;;;;;;;;;;;5072134;28;20445;-47
2022/04/06 02:11:34;;;;;;;;;;;;;;;;;;5072054;28;19954;-47
2022/04/06 02:14:00;;;;;;;;;;;;;;;;;;5071978;28;19909;-47
2022/04/06 02:16:26;;;;;;;;;;;;;;;;;;5071907;28;19967;-46
2022/04/06 02:18:52;;;;;;;;;;;;;;;;;;5071999;28;20436;-47
2022/04/06 02:21:18;;;;;;;;;;;;;;;;;;5072063;28;19909;-46
2022/04/06 02:23:44;;;;;;;;;;;;;;;;;;5071874;28;19909;-47
2022/04/06 02:26:09;;;;;;;;;;;;;;;;;;5071868;28;19999;-46
2022/04/06 02:28:36;;;;;;;;;;;;;;;;;;5071889;28;19908;-46
2022/04/06 02:31:01;;;;;;;;;;;;;;;;;;5072087;28;19954;-47
2022/04/06 02:33:27;;;;;;;;;;;;;;;;;;5071791;28;20374;-46
2022/04/06 02:35:53;;;;;;;;;;;;;;;;;;5071994;28;19909;-46
2022/04/06 02:38:19;;;;;;;;;;;;;;;;;;5071729;28;19932;-55
2022/04/06 02:40:46;;;;;;;;;;;;;;;;;;5071824;28;19908;-51
2022/04/06 02:43:12;;;;;;;;;;;;;;;;;;5071985;28;20278;-54
2022/04/06 02:45:38;;;;;;;;;;;;;;;;;;5075045;28;20275;-55
2022/04/06 02:48:05;;;;;;;;;;;;;;;;;;5075322;28;19909;-55
2022/04/06 02:50:30;;;;;;;;;;;;;;;;;;5075596;28;19908;-55
2022/04/06 02:52:56;;;;;;;;;;;;;;;;;;5075456;28;19915;-54
2022/04/06 02:55:22;;;;;;;;;;;;;;;;;;5075215;28;19909;-54
2022/04/06 02:57:48;;;;;;;;;;;;;;;;;;5075377;28;19916;-54
2022/04/06 03:00:14;;;;;;;;;;;;;;;;;;5075033;28;19916;-54
2022/04/06 03:02:40;;;;;;;;;;;;;;;;;;5075218;28;19915;-52
2022/04/06 03:05:06;;;;;;;;;;;;;;;;;;5074964;28;20290;-54
2022/04/06 03:07:32;;;;;;;;;;;;;;;;;;5074972;28;19962;-54
2022/04/06 03:09:57;;;;;;;;;;;;;;;;;;5074892;28;19915;-54
2022/04/06 03:12:23;;;;;;;;;;;;;;;;;;5074955;28;20375;-53
2022/04/06 03:14:49;;;;;;;;;;;;;;;;;;5074835;28;20035;-54
2022/04/06 03:17:16;;;;;;;;;;;;;;;;;;5074804;28;19924;-54
2022/04/06 03:19:42;;;;;;;;;;;;;;;;;;5075031;28;19912;-55
2022/04/06 03:22:08;;;;;;;;;;;;;;;;;;5074749;28;20321;-52
2022/04/06 03:24:34;;;;;;;;;;;;;;;;;;5074672;28;19908;-52
2022/04/06 03:26:59;;;;;;;;;;;;;;;;;;5074583;28;20395;-53
2022/04/06 03:29:25;;;;;;;;;;;;;;;;;;5074556;28;19953;-52
2022/04/06 03:31:51;;;;;;;;;;;;;;;;;;5074565;28;19915;-52
2022/04/06 03:34:17;;;;;;;;;;;;;;;;;;5074533;28;19931;-53
2022/04/06 03:36:43;;;;;;;;;;;;;;;;;;5074153;28;19920;-52
2022/04/06 03:39:09;;;;;;;;;;;;;;;;;;5074315;28;20347;-54
2022/04/06 03:41:35;;;;;;;;;;;;;;;;;;5074626;28;19962;-53
2022/04/06 03:44:01;;;;;;;;;;;;;;;;;;5074321;28;19951;-54
2022/04/06 03:46:26;;;;;;;;;;;;;;;;;;5074233;28;19909;-52
2022/04/06 03:48:52;;;;;;;;;;;;;;;;;;5074201;28;19935;-51
2022/04/06 03:51:18;;;;;;;;;;;;;;;;;;5074285;28;19908;-53
2022/04/06 03:53:44;;;;;;;;;;;;;;;;;;5074133;28;19908;-51
2022/04/06 03:56:10;;;;;;;;;;;;;;;;;;5073872;28;19909;-51
2022/04/06 03:58:36;;;;;;;;;;;;;;;;;;5074201;28;19909;-52
2022/04/06 04:01:02;;;;;;;;;;;;;;;;;;5073901;28;20007;-51
2022/04/06 04:03:27;;;;;;;;;;;;;;;;;;5073775;28;19909;-50
2022/04/06 04:05:53;;;;;;;;;;;;;;;;;;5074107;28;19916;-51
2022/04/06 04:08:21;;;;;;;;;;;;;;;;;;5073804;28;19912;-54
2022/04/06 04:10:47;;;;;;;;;;;;;;;;;;5073833;28;19916;-51
2022/04/06 04:13:13;;;;;;;;;;;;;;;;;;5073936;28;19943;-51
2022/04/06 04:15:39;;;;;;;;;;;;;;;;;;5073949;28;20003;-52
2022/04/06 04:18:05;;;;;;;;;;;;;;;;;;5073722;28;20018;-52
2022/04/06 04:20:31;;;;;;;;;;;;;;;;;;5073458;28;19908;-51
2022/04/06 04:22:57;;;;;;;;;;;;;;;;;;5073455;28;19983;-51
2022/04/06 04:25:23;;;;;;;;;;;;;;;;;;5073634;28;19908;-52
2022/04/06 04:27:48;;;;;;;;;;;;;;;;;;5073391;28;19963;-52
2022/04/06 04:30:14;;;;;;;;;;;;;;;;;;5073336;28;20389;-50
2022/04/06 04:32:40;;;;;;;;;;;;;;;;;;5073260;28;19974;-53
2022/04/06 04:35:07;;;;;;;;;;;;;;;;;;5073480;28;19912;-51
2022/04/06 04:37:33;;;;;;;;;;;;;;;;;;5073019;28;19920;-54
2022/04/06 04:39:59;;;;;;;;;;;;;;;;;;5073393;28;20259;-53
2022/04/06 04:42:25;;;;;;;;;;;;;;;;;;5073308;28;19995;-51
2022/04/06 04:44:51;;;;;;;;;;;;;;;;;;5073017;28;19909;-54
2022/04/06 04:47:17;;;;;;;;;;;;;;;;;;5073324;28;19909;-50
2022/04/06 04:49:43;;;;;;;;;;;;;;;;;;5072915;28;19960;-51
2022/04/06 04:52:09;;;;;;;;;;;;;;;;;;5073117;28;20017;-53
2022/04/06 04:54:36;;;;;;;;;;;;;;;;;;5072779;28;19909;-51
2022/04/06 04:57:02;;;;;;;;;;;;;;;;;;5072660;28;19961;-52
2022/04/06 04:59:28;;;;;;;;;;;;;;;;;;5072799;28;20007;-52
2022/04/06 05:01:53;;;;;;;;;;;;;;;;;;5072735;28;19965;-51
2022/04/06 05:04:20;;;;;;;;;;;;;;;;;;5072809;28;19915;-52
2022/04/06 05:06:45;;;;;;;;;;;;;;;;;;5072621;28;20050;-51
2022/04/06 05:09:11;;;;;;;;;;;;;;;;;;5072904;28;19932;-51
2022/04/06 05:11:37;;;;;;;;;;;;;;;;;;5072669;28;19916;-53
2022/04/06 05:14:03;;;;;;;;;;;;;;;;;;5072602;28;19997;-51
2022/04/06 05:16:30;;;;;;;;;;;;;;;;;;5072736;28;19912;-52
2022/04/06 05:18:56;;;;;;;;;;;;;;;;;;5072827;28;20337;-50
2022/04/06 05:21:22;;;;;;;;;;;;;;;;;;5072487;28;19958;-52
2022/04/06 05:23:48;;;;;;;;;;;;;;;;;;5072526;28;19942;-51
2022/04/06 05:26:14;;;;;;;;;;;;;;;;;;5072498;28;19908;-51
2022/04/06 05:28:39;;;;;;;;;;;;;;;;;;5072765;28;19934;-50
2022/04/06 05:31:05;;;;;;;;;;;;;;;;;;5072744;28;20355;-52
2022/04/06 05:33:31;;;;;;;;;;;;;;;;;;5072405;28;19999;-53
2022/04/06 05:35:57;;;;;;;;;;;;;;;;;;5072177;28;19908;-54
2022/04/06 05:38:23;;;;;;;;;;;;;;;;;;5072011;28;20397;-53
2022/04/06 05:40:49;;;;;;;;;;;;;;;;;;5072250;28;19957;-53
2022/04/06 05:43:15;;;;;;;;;;;;;;;;;;5072510;28;20351;-49
2022/04/06 05:45:41;;;;;;;;;;;;;;;;;;5072106;28;19915;-53
2022/04/06 05:48:07;;;;;;;;;;;;;;;;;;5072193;28;19915;-51
2022/04/06 05:50:33;;;;;;;;;;;;;;;;;;5072056;28;20015;-53
2022/04/06 05:52:58;;;;;;;;;;;;;;;;;;5072265;28;19919;-53
2022/04/06 05:55:24;;;;;;;;;;;;;;;;;;5072057;28;20004;-54
2022/04/06 05:57:50;;;;;;;;;;;;;;;;;;5071883;28;19923;-54
2022/04/06 06:00:16;;;;;;;;;;;;;;;;;;5071984;28;19908;-53
2022/04/06 06:02:43;;;;;;;;;;;;;;;;;;5071851;28;19999;-52
2022/04/06 06:05:09;;;;;;;;;;;;;;;;;;5072105;28;19912;-52
2022/04/06 06:07:35;;;;;;;;;;;;;;;;;;5071730;28;19970;-51
2022/04/06 06:10:02;;;;;;;;;;;;;;;;;;5071730;28;20027;-51
2022/04/06 06:12:29;;;;;;;;;;;;;;;;;;5072026;28;19977;-51
2022/04/06 06:14:54;;;;;;;;;;;;;;;;;;5071984;28;20376;-54
2022/04/06 06:17:20;;;;;;;;;;;;;;;;;;5071648;28;20007;-54
2022/04/06 06:19:46;;;;;;;;;;;;;;;;;;5073602;28;19964;-51
2022/04/06 06:22:12;;;;;;;;;;;;;;;;;;5075581;28;19990;-52
2022/04/06 06:24:38;;;;;;;;;;;;;;;;;;5075497;28;19909;-51
2022/04/06 06:27:04;;;;;;;;;;;;;;;;;;5075437;28;20313;-50
2022/04/06 06:29:30;;;;;;;;;;;;;;;;;;5075594;28;20262;-49
2022/04/06 06:31:56;;;;;;;;;;;;;;;;;;5075315;28;19909;-50
2022/04/06 06:34:22;;;;;;;;;;;;;;;;;;5075668;28;20252;-51
2022/04/06 06:36:48;;;;;;;;;;;;;;;;;;5075160;28;19920;-51
2022/04/06 06:39:14;;;;;;;;;;;;;;;;;;5075441;28;19961;-50
2022/04/06 06:41:42;;;;;;;;;;;;;;;;;;5075614;28;19912;-50
2022/04/06 06:44:07;;;;;;;;;;;;;;;;;;5075194;28;19954;-52
2022/04/06 06:46:33;;;;;;;;;;;;;;;;;;5075274;28;19908;-50
2022/04/06 06:49:03;;;;;;;;;;;;;;;;;;5075281;28;19951;-53
2022/04/06 06:51:30;;;;;;;;;;;;;;;;;;5075288;28;19909;-51
2022/04/06 06:53:55;;;;;;;;;;;;;;;;;;5075290;28;19955;-50
2022/04/06 06:56:21;;;;;;;;;;;;;;;;;;5075067;28;20330;-52
2022/04/06 06:58:47;;;;;;;;;;;;;;;;;;5075333;28;19916;-54
2022/04/06 07:01:13;;;;;;;;;;;;;;;;;;5074857;28;19920;-49
2022/04/06 07:03:39;;;;;;;;;;;;;;;;;;5074968;28;19975;-49
2022/04/06 07:06:05;;;;;;;;;;;;;;;;;;5075091;28;19909;-50
2022/04/06 07:08:31;;;;;;;;;;;;;;;;;;5074875;28;19931;-48
2022/04/06 07:10:57;;;;;;;;;;;;;;;;;;5074819;28;20045;-52
2022/04/06 07:13:23;;;;;;;;;;;;;;;;;;5075066;28;19912;-50
2022/04/06 07:15:49;;;;;;;;;;;;;;;;;;5074882;28;20518;-53
2022/04/06 07:18:17;;;;;;;;;;;;;;;;;;5074725;28;19922;-48
2022/04/06 07:20:43;;;;;;;;;;;;;;;;;;5074717;28;19944;-49
2022/04/06 07:23:09;;;;;;;;;;;;;;;;;;5074851;28;19912;-49
2022/04/06 07:25:35;;;;;;;;;;;;;;;;;;5074749;28;19916;-50
2022/04/06 07:28:01;;;;;;;;;;;;;;;;;;5074660;28;19909;-49
2022/04/06 07:30:27;;;;;;;;;;;;;;;;;;5074323;28;19916;-49
2022/04/06 07:32:52;;;;;;;;;;;;;;;;;;5074606;28;20264;-49
2022/04/06 07:35:18;;;;;;;;;;;;;;;;;;5074634;28;19939;-48
2022/04/06 07:37:44;;;;;;;;;;;;;;;;;;5074224;28;20017;-47
2022/04/06 07:40:10;;;;;;;;;;;;;;;;;;5074351;28;19958;-47
2022/04/06 07:42:36;;;;;;;;;;;;;;;;;;5074676;28;19908;-47
2022/04/06 07:45:02;;;;;;;;;;;;;;;;;;5074638;28;19912;-47
2022/04/06 07:47:28;;;;;;;;;;;;;;;;;;5074274;28;19908;-49
2022/04/06 07:49:54;;;;;;;;;;;;;;;;;;5074491;28;19916;-46
2022/04/06 07:52:22;;;;;;;;;;;;;;;;;;5074518;28;19913;-47
2022/04/06 07:54:48;;;;;;;;;;;;;;;;;;5074446;28;19943;-47
2022/04/06 07:57:14;;;;;;;;;;;;;;;;;;5074053;28;20041;-48
2022/04/06 07:59:39;;;;;;;;;;;;;;;;;;5074096;28;19912;-47
2022/04/06 08:02:05;;;;;;;;;;;;;;;;;;5073749;28;19916;-45
2022/04/06 08:04:31;;;;;;;;;;;;;;;;;;5073797;28;20109;-46
2022/04/06 08:06:57;;;;;;;;;;;;;;;;;;5073914;28;19908;-46
2022/04/06 08:09:23;;;;;;;;;;;;;;;;;;5074381;28;19946;-45
2022/04/06 08:11:50;;;;;;;;;;;;;;;;;;5074143;28;19920;-46
2022/04/06 08:14:16;;;;;;;;;;;;;;;;;;5074290;28;19909;-44
2022/04/06 08:16:42;;;;;;;;;;;;;;;;;;5073976;28;19966;-45
2022/04/06 08:19:08;;;;;;;;;;;;;;;;;;5073860;28;19912;-45
2022/04/06 08:21:34;;;;;;;;;;;;;;;;;;5073805;28;19909;-45
2022/04/06 08:23:59;;;;;;;;;;;;;;;;;;5073723;28;19942;-45
2022/04/06 08:26:27;;;;;;;;;;;;;;;;;;5073707;28;20271;-43
2022/04/06 08:28:54;;;;;;;;;;;;;;;;;;5073658;28;19908;-47
2022/04/06 08:31:20;;;;;;;;;;;;;;;;;;5073767;28;19909;-45
2022/04/06 08:33:46;;;;;;;;;;;;;;;;;;5073489;28;20358;-45
2022/04/06 08:36:12;;;;;;;;;;;;;;;;;;5073329;28;19932;-45
2022/04/06 08:38:38;;;;;;;;;;;;;;;;;;5073327;28;20303;-44
2022/04/06 08:41:04;;;;;;;;;;;;;;;;;;5073459;28;19915;-45
2022/04/06 08:43:29;;;;;;;;;;;;;;;;;;5072668;28;19908;-46
2022/04/06 08:45:56;;;;;;;;;;;;;;;;;;5073292;28;19916;-46
2022/04/06 08:48:21;;;;;;;;;;;;;;;;;;5073137;28;20489;-50
2022/04/06 08:50:48;;;;;;;;;;;;;;;;;;5073192;28;19927;-51
2022/04/06 08:53:14;;;;;;;;;;;;;;;;;;5073106;28;19908;-49
2022/04/06 08:55:40;;;;;;;;;;;;;;;;;;5073142;28;19916;-50
2022/04/06 08:58:07;;;;;;;;;;;;;;;;;;5072990;28;19917;-52
2022/04/06 09:00:33;;;;;;;;;;;;;;;;;;5073084;28;20003;-52
2022/04/06 09:02:59;;;;;;;;;;;;;;;;;;5072990;28;19982;-49
2022/04/06 09:05:26;;;;;;;;;;;;;;;;;;5073163;28;20474;-51
2022/04/06 09:07:52;;;;;;;;;;;;;;;;;;5073289;28;19909;-45
2022/04/06 09:10:18;;;;;;;;;;;;;;;;;;5073203;28;19909;-45
2022/04/06 09:12:44;;;;;;;;;;;;;;;;;;5072804;28;19909;-45
2022/04/06 09:15:09;;;;;;;;;;;;;;;;;;5072907;28;19935;-45
2022/04/06 09:17:35;;;;;;;;;;;;;;;;;;5072801;28;20003;-45
2022/04/06 09:20:03;;;;;;;;;;;;;;;;;;5072862;28;19916;-45
2022/04/06 09:22:29;;;;;;;;;;;;;;;;;;5073117;28;20423;-46
2022/04/06 09:24:56;;;;;;;;;;;;;;;;;;5073142;28;19912;-45
2022/04/06 09:27:22;;;;;;;;;;;;;;;;;;5072962;28;19908;-45
2022/04/06 09:29:48;;;;;;;;;;;;;;;;;;5072802;28;19909;-45
2022/04/06 09:32:14;;;;;;;;;;;;;;;;;;5072757;28;19908;-45
2022/04/06 09:34:42;;;;;;;;;;;;;;;;;;5072696;28;20264;-45
2022/04/06 09:37:08;;;;;;;;;;;;;;;;;;5072537;28;20302;-45
2022/04/06 09:39:34;;;;;;;;;;;;;;;;;;5072682;28;19908;-45
2022/04/06 09:42:00;;;;;;;;;;;;;;;;;;5072728;28;20028;-45
2022/04/06 09:49:55;;;;;;;;;;;;;;;;;;5072673;28;19957;-51
2022/04/06 09:52:21;;;;;;;;;;;;;;;;;;5054508;28;19912;-51
2022/04/06 09:54:47;;;;;;;;;;;;;;;;;;5076272;28;19909;-54
2022/04/06 09:57:12;;;;;;;;;;;;;;;;;;5076559;28;20399;-51
2022/04/06 09:59:42;;;;;;;;;;;;;;;;;;5076566;28;19908;-54
2022/04/06 10:02:08;;;;;;;;;;;;;;;;;;5076571;28;19916;-51
2022/04/06 10:04:34;;;;;;;;;;;;;;;;;;5076630;28;19908;-53
2022/04/06 10:07:01;;;;;;;;;;;;;;;;;;5076593;28;20319;-54
2022/04/06 10:09:27;;;;;;;;;;;;;;;;;;5076664;28;19909;-50
2022/04/06 10:11:53;;;;;;;;;;;;;;;;;;5076302;28;20294;-50
2022/04/06 10:14:18;;;;;;;;;;;;;;;;;;5076153;28;19912;-50
2022/04/06 10:16:45;;;;;;;;;;;;;;;;;;5076130;28;19923;-51
2022/04/06 10:19:11;;;;;;;;;;;;;;;;;;5076256;28;20282;-51
2022/04/06 10:21:37;;;;;;;;;;;;;;;;;;5076065;28;19908;-50
2022/04/06 10:24:03;;;;;;;;;;;;;;;;;;5075985;28;19962;-51
2022/04/06 10:26:29;;;;;;;;;;;;;;;;;;5076016;28;19999;-52
2022/04/06 10:28:55;;;;;;;;;;;;;;;;;;5075922;28;20424;-51
2022/04/06 10:31:22;;;;;;;;;;;;;;;;;;5075937;28;19908;-53
2022/04/06 10:33:48;;;;;;;;;;;;;;;;;;5076046;28;20058;-54
2022/04/06 10:36:14;;;;;;;;;;;;;;;;;;5075598;28;20385;-49
2022/04/06 10:38:40;;;;;;;;;;;;;;;;;;5075757;28;19916;-45
2022/04/06 10:41:06;;;;;;;;;;;;;;;;;;5075697;28;19981;-46
2022/04/06 10:43:32;;;;;;;;;;;;;;;;;;5075679;28;19915;-45
2022/04/06 10:45:58;;;;;;;;;;;;;;;;;;5075619;28;19909;-46
2022/04/06 10:48:24;;;;;;;;;;;;;;;;;;5075543;28;19932;-45
2022/04/06 10:50:50;;;;;;;;;;;;;;;;;;5075363;28;20363;-45
2022/04/06 10:53:16;;;;;;;;;;;;;;;;;;5075513;28;19908;-46
2022/04/06 10:55:42;;;;;;;;;;;;;;;;;;5075411;28;19916;-46
2022/04/06 10:58:08;;;;;;;;;;;;;;;;;;5075203;28;19951;-46
2022/04/06 11:00:35;;;;;;;;;;;;;;;;;;5075488;28;20334;-45
2022/04/06 11:03:00;;;;;;;;;;;;;;;;;;5075104;28;19908;-44
2022/04/06 11:05:26;;;;;;;;;;;;;;;;;;5074469;28;19916;-46
2022/04/06 11:10:37;;;;;;;;;;;;;;;;;;5075276;28;19955;-45
2022/04/06 11:13:02;;;;;;;;;;;;;;;;;;5075070;28;19943;-45
2022/04/06 11:15:28;;;;;;;;;;;;;;;;;;5075365;28;20030;-49
2022/04/06 11:17:54;;;;;;;;;;;;;;;;;;5074823;28;20398;-49
2022/04/06 11:20:21;;;;;;;;;;;;;;;;;;5075254;28;19912;-49
2022/04/06 11:22:46;;;;;;;;;;;;;;;;;;5074583;28;19923;-50
2022/04/06 11:25:12;;;;;;;;;;;;;;;;;;5074586;28;19909;-50
2022/04/06 11:27:38;;;;;;;;;;;;;;;;;;5074711;28;19919;-49
2022/04/06 11:30:04;;;;;;;;;;;;;;;;;;5074727;28;20355;-50
2022/04/06 11:32:30;;;;;;;;;;;;;;;;;;5074786;28;19914;-49
2022/04/06 11:34:56;;;;;;;;;;;;;;;;;;5074486;28;20313;-50
2022/04/06 11:37:22;;;;;;;;;;;;;;;;;;5074074;28;19921;-50
2022/04/06 11:39:48;;;;;;;;;;;;;;;;;;5074367;28;20012;-50
2022/04/06 11:42:13;;;;;;;;;;;;;;;;;;5074248;28;19912;-51
2022/04/06 11:44:39;;;;;;;;;;;;;;;;;;5074294;28;19948;-52
2022/04/06 11:47:05;;;;;;;;;;;;;;;;;;5074185;28;20482;-50
2022/04/06 11:49:31;;;;;;;;;;;;;;;;;;5074227;28;19909;-51
2022/04/06 11:51:57;;;;;;;;;;;;;;;;;;5074193;28;19961;-51
2022/04/06 11:54:23;;;;;;;;;;;;;;;;;;5074016;28;20367;-51
2022/04/06 11:56:49;;;;;;;;;;;;;;;;;;5073816;28;19925;-50
2022/04/06 11:59:16;;;;;;;;;;;;;;;;;;5074248;28;19909;-52
2022/04/06 12:01:42;;;;;;;;;;;;;;;;;;5073672;28;19908;-52
2022/04/06 12:04:08;;;;;;;;;;;;;;;;;;5073608;28;20370;-52
2022/04/06 12:06:36;;;;;;;;;;;;;;;;;;5073636;28;20374;-52
2022/04/06 12:09:02;;;;;;;;;;;;;;;;;;5073793;28;19908;-52
2022/04/06 12:11:28;;;;;;;;;;;;;;;;;;5073743;28;19908;-51
2022/04/06 12:13:55;;;;;;;;;;;;;;;;;;5073864;28;19944;-52
2022/04/06 12:16:21;;;;;;;;;;;;;;;;;;5073099;28;19915;-50
2022/04/06 12:18:47;;;;;;;;;;;;;;;;;;5073198;28;19917;-50
2022/04/06 12:21:12;;;;;;;;;;;;;;;;;;5073511;28;19908;-50
2022/04/06 12:23:38;;;;;;;;;;;;;;;;;;5073539;28;19948;-51
2022/04/06 12:26:04;;;;;;;;;;;;;;;;;;5073701;28;20022;-50
2022/04/06 12:28:30;;;;;;;;;;;;;;;;;;5073436;28;19908;-49
2022/04/06 12:30:57;;;;;;;;;;;;;;;;;;5073433;28;19970;-51
2022/04/06 12:33:23;;;;;;;;;;;;;;;;;;5073625;28;19909;-50
2022/04/06 12:35:48;;;;;;;;;;;;;;;;;;5073343;28;19966;-50
2022/04/06 12:38:14;;;;;;;;;;;;;;;;;;5072993;28;19928;-50
2022/04/06 12:40:40;;;;;;;;;;;;;;;;;;5073354;28;19913;-51
2022/04/06 12:43:06;;;;;;;;;;;;;;;;;;5073280;28;19936;-50
2022/04/06 12:45:32;;;;;;;;;;;;;;;;;;5073164;28;19999;-51
2022/04/06 12:47:58;;;;;;;;;;;;;;;;;;5073073;28;19909;-52
2022/04/06 12:50:24;;;;;;;;;;;;;;;;;;5072901;28;20342;-50
2022/04/06 12:52:49;;;;;;;;;;;;;;;;;;5072792;28;19923;-49
2022/04/06 12:55:16;;;;;;;;;;;;;;;;;;5072919;28;19914;-51
2022/04/06 12:57:42;;;;;;;;;;;;;;;;;;5072967;28;19917;-51
2022/04/06 13:00:08;;;;;;;;;;;;;;;;;;5072755;28;19924;-53
2022/04/06 13:02:33;;;;;;;;;;;;;;;;;;5072760;28;19969;-50
2022/04/06 13:04:59;;;;;;;;;;;;;;;;;;5072786;28;19938;-50
2022/04/06 13:07:25;;;;;;;;;;;;;;;;;;5072740;28;19914;-52
2022/04/06 13:09:51;;;;;;;;;;;;;;;;;;5072762;28;20106;-49
2022/04/06 13:12:17;;;;;;;;;;;;;;;;;;5072692;28;19916;-51
2022/04/06 13:14:43;;;;;;;;;;;;;;;;;;5072624;28;19908;-51
2022/04/06 13:17:09;;;;;;;;;;;;;;;;;;5072766;28;20018;-50
2022/04/06 13:19:35;;;;;;;;;;;;;;;;;;5072500;28;19912;-50
2022/04/06 13:22:01;;;;;;;;;;;;;;;;;;5072452;28;19910;-50
2022/04/06 13:24:26;;;;;;;;;;;;;;;;;;5072377;28;20405;-49
2022/04/06 13:26:52;;;;;;;;;;;;;;;;;;5072343;28;19908;-50
2022/04/06 13:29:18;;;;;;;;;;;;;;;;;;5071911;28;19908;-50
2022/04/06 13:31:44;;;;;;;;;;;;;;;;;;5072235;28;20343;-50
2022/04/06 13:34:12;;;;;;;;;;;;;;;;;;5072434;28;19912;-50
2022/04/06 13:36:40;;;;;;;;;;;;;;;;;;5072449;28;20386;-50
2022/04/06 13:39:07;;;;;;;;;;;;;;;;;;5072321;28;20304;-49
2022/04/06 13:41:33;;;;;;;;;;;;;;;;;;5072626;28;19916;-51
2022/04/06 13:43:59;;;;;;;;;;;;;;;;;;5072703;28;20004;-50
2022/04/06 13:46:25;;;;;;;;;;;;;;;;;;5072679;28;20363;-51
2022/04/06 13:48:56;;;;;;;;;;;;;;;;;;5072603;28;19912;-51
2022/04/06 13:51:22;;;;;;;;;;;;;;;;;;5072933;28;19909;-49
2022/04/06 13:53:48;;;;;;;;;;;;;;;;;;5072532;28;20336;-50
2022/04/06 13:56:14;;;;;;;;;;;;;;;;;;5072590;28;19909;-50
2022/04/06 13:58:40;;;;;;;;;;;;;;;;;;5072619;28;19916;-50
2022/04/06 14:01:05;;;;;;;;;;;;;;;;;;5072454;28;19915;-50
2022/04/06 14:03:31;;;;;;;;;;;;;;;;;;5072293;28;19948;-50
2022/04/06 14:05:57;;;;;;;;;;;;;;;;;;5072458;28;19909;-49
2022/04/06 14:08:23;;;;;;;;;;;;;;;;;;5072468;28;20325;-50
2022/04/06 14:10:50;;;;;;;;;;;;;;;;;;5072372;28;19920;-50
2022/04/06 14:13:16;;;;;;;;;;;;;;;;;;5072354;28;20526;-52
2022/04/06 14:15:41;;;;;;;;;;;;;;;;;;5072528;28;19908;-50
2022/04/06 14:18:07;;;;;;;;;;;;;;;;;;5072227;28;20416;-50
2022/04/06 14:20:33;;;;;;;;;;;;;;;;;;5072209;28;20018;-51
2022/04/06 14:22:59;;;;;;;;;;;;;;;;;;5072139;28;19975;-52
2022/04/06 14:25:25;;;;;;;;;;;;;;;;;;5072145;28;19909;-50
2022/04/06 14:27:51;;;;;;;;;;;;;;;;;;5072042;28;19908;-51
2022/04/06 14:30:17;;;;;;;;;;;;;;;;;;5072433;28;19915;-49
2022/04/06 14:32:43;;;;;;;;;;;;;;;;;;5072099;28;20035;-49
2022/04/06 14:35:09;;;;;;;;;;;;;;;;;;5072071;28;19935;-50
2022/04/06 14:37:35;;;;;;;;;;;;;;;;;;5071910;28;20052;-50
2022/04/06 14:40:00;;;;;;;;;;;;;;;;;;5072957;28;19916;-50
2022/04/06 14:42:26;;;;;;;;;;;;;;;;;;5075616;28;19909;-53
2022/04/06 14:44:53;;;;;;;;;;;;;;;;;;5075787;28;20024;-52
2022/04/06 14:47:19;;;;;;;;;;;;;;;;;;5075555;28;20042;-50
2022/04/06 14:49:45;;;;;;;;;;;;;;;;;;5075520;28;20394;-52
2022/04/06 14:52:10;;;;;;;;;;;;;;;;;;5075506;28;19915;-53
2022/04/06 14:54:36;;;;;;;;;;;;;;;;;;5075476;28;20007;-54
2022/04/06 14:57:02;;;;;;;;;;;;;;;;;;5075365;28;19916;-53
2022/04/06 14:59:29;;;;;;;;;;;;;;;;;;5075362;28;20440;-52
2022/04/06 15:01:55;;;;;;;;;;;;;;;;;;5075264;28;19913;-54
2022/04/06 15:04:21;;;;;;;;;;;;;;;;;;5075333;28;19930;-52
2022/04/06 15:06:46;;;;;;;;;;;;;;;;;;5075534;28;19908;-50
2022/04/06 15:09:12;;;;;;;;;;;;;;;;;;5075253;28;19908;-51
2022/04/06 15:11:38;;;;;;;;;;;;;;;;;;5075179;28;19908;-51
2022/04/06 15:14:04;;;;;;;;;;;;;;;;;;5075158;28;19909;-53
2022/04/06 15:16:30;;;;;;;;;;;;;;;;;;5075411;28;19999;-50
2022/04/06 15:18:56;;;;;;;;;;;;;;;;;;5074941;28;19924;-53
2022/04/06 15:21:23;;;;;;;;;;;;;;;;;;5075331;28;19912;-50
2022/04/06 15:23:49;;;;;;;;;;;;;;;;;;5074940;28;20369;-50
2022/04/06 15:26:15;;;;;;;;;;;;;;;;;;5074881;28;19909;-50
2022/04/06 15:28:43;;;;;;;;;;;;;;;;;;5075120;28;19908;-54
2022/04/06 15:31:09;;;;;;;;;;;;;;;;;;5074870;28;20097;-53
2022/04/06 15:33:34;;;;;;;;;;;;;;;;;;5074831;28;20320;-52
2022/04/06 15:38:45;;;;;;;;;;;;;;;;;;5074694;28;20279;-51
2022/04/06 15:41:11;;;;;;;;;;;;;;;;;;5074630;28;19909;-50
2022/04/06 15:43:37;;;;;;;;;;;;;;;;;;5074639;28;19946;-52
2022/04/06 15:46:03;;;;;;;;;;;;;;;;;;5074552;28;19909;-51
2022/04/06 15:48:29;;;;;;;;;;;;;;;;;;5074853;28;19952;-52
2022/04/06 15:50:56;;;;;;;;;;;;;;;;;;5074346;28;20380;-51
2022/04/06 15:53:22;;;;;;;;;;;;;;;;;;5074398;28;19931;-51
2022/04/06 15:55:47;;;;;;;;;;;;;;;;;;5074448;28;19909;-52
2022/04/06 15:58:17;;;;;;;;;;;;;;;;;;5074210;28;19916;-53
2022/04/06 16:00:43;;;;;;;;;;;;;;;;;;5074612;28;19909;-53
2022/04/06 16:03:09;;;;;;;;;;;;;;;;;;5074089;28;19912;-51
2022/04/06 16:05:35;;;;;;;;;;;;;;;;;;5074193;28;19909;-51
2022/04/06 16:08:01;;;;;;;;;;;;;;;;;;5074253;28;20358;-54
2022/04/06 16:10:27;;;;;;;;;;;;;;;;;;5074125;28;19954;-54
2022/04/06 16:12:53;;;;;;;;;;;;;;;;;;5074010;28;19908;-51
2022/04/06 16:15:19;;;;;;;;;;;;;;;;;;5074218;28;19909;-51
2022/04/06 16:17:44;;;;;;;;;;;;;;;;;;5074089;28;20352;-51
2022/04/06 16:20:10;;;;;;;;;;;;;;;;;;5073792;28;19952;-51
2022/04/06 16:22:36;;;;;;;;;;;;;;;;;;5073892;28;20034;-53
2022/04/06 16:25:02;;;;;;;;;;;;;;;;;;5073987;28;19908;-50
2022/04/06 16:27:28;;;;;;;;;;;;;;;;;;5073624;28;20438;-53
2022/04/06 16:29:54;;;;;;;;;;;;;;;;;;5073639;28;19940;-50
2022/04/06 16:32:20;;;;;;;;;;;;;;;;;;5073615;28;20390;-50
2022/04/06 16:34:46;;;;;;;;;;;;;;;;;;5073775;28;19908;-51
2022/04/06 16:37:12;;;;;;;;;;;;;;;;;;5073334;28;20329;-51
2022/04/06 16:39:38;;;;;;;;;;;;;;;;;;5073531;28;19908;-49
2022/04/06 16:42:04;;;;;;;;;;;;;;;;;;5073494;28;20003;-49
2022/04/06 16:44:30;;;;;;;;;;;;;;;;;;5073570;28;19908;-48
2022/04/06 16:46:56;;;;;;;;;;;;;;;;;;5073516;28;19908;-48
2022/04/06 16:49:22;;;;;;;;;;;;;;;;;;5073347;28;19909;-48
2022/04/06 16:54:32;;;;;;;;;;;;;;;;;;5073363;28;20007;-47
2022/04/06 16:56:58;;;;;;;;;;;17.60;93.10;;;;;;5073211;28;19908;-50